sensor_id;sensor_type;location;lat;lon;timestamp;temperature;humidity
1678;DHT22;6034;46.864;15.216;2022-08-07T06:17:03;21.30;99.90
1678;DHT22;6034;46.864;15.216;2022-08-07T06:19:30;21.40;99.90
1678;DHT22;6034;46.864;15.216;2022-08-07T06:22:00;21.40;99.90
1678;DHT22;6034;46.864;15.216;2022-08-07T06:24:28;21.30;99.90
1678;DHT22;6034;46.864;15.216;2022-08-07T06:26:55;21.50;99.90
1678;DHT22;6034;46.864;15.216;2022-08-07T06:29:25;21.60;99.90
1678;DHT22;6034;46.864;15.216;2022-08-07T06:31:54;21.70;99.90
1678;DHT22;6034;46.864;15.216;2022-08-07T06:34:27;21.80;99.90
1678;DHT22;6034;46.864;15.216;2022-08-07T06:36:54;21.60;99.90
1678;DHT22;6034;46.864;15.216;2022-08-07T06:39:21;21.60;99.90
1678;DHT22;6034;46.864;15.216;2022-08-07T06:41:49;21.40;99.90
1678;DHT22;6034;46.864;15.216;2022-08-07T06:44:18;21.50;99.90
1678;DHT22;6034;46.864;15.216;2022-08-07T06:46:46;21.70;99.90
1678;DHT22;6034;46.864;15.216;2022-08-07T06:49:12;22.10;99.90
1678;DHT22;6034;46.864;15.216;2022-08-07T06:51:41;22.30;99.90
1678;DHT22;6034;46.864;15.216;2022-08-07T06:54:09;22.60;99.90
1678;DHT22;6034;46.864;15.216;2022-08-07T06:56:36;22.30;99.90
1678;DHT22;6034;46.864;15.216;2022-08-07T06:59:09;22.30;99.90
1678;DHT22;6034;46.864;15.216;2022-08-07T07:01:38;22.70;99.90
1678;DHT22;6034;46.864;15.216;2022-08-07T07:04:07;22.60;99.90
1678;DHT22;6034;46.864;15.216;2022-08-07T07:06:34;22.40;99.90
1678;DHT22;6034;46.864;15.216;2022-08-07T07:09:19;22.00;99.90
1678;DHT22;6034;46.864;15.216;2022-08-07T07:14:50;22.60;99.90
1678;DHT22;6034;46.864;15.216;2022-08-07T07:17:21;22.30;99.90
1678;DHT22;6034;46.864;15.216;2022-08-07T07:19:52;21.90;99.90
1678;DHT22;6034;46.864;15.216;2022-08-07T07:22:19;22.40;99.90
1678;DHT22;6034;46.864;15.216;2022-08-07T07:24:48;22.40;99.90
1678;DHT22;6034;46.864;15.216;2022-08-07T07:27:16;22.60;99.90
1678;DHT22;6034;46.864;15.216;2022-08-07T07:29:44;22.80;99.90
1678;DHT22;6034;46.864;15.216;2022-08-07T07:32:13;22.70;99.90
1678;DHT22;6034;46.864;15.216;2022-08-07T07:34:42;22.80;99.90
1678;DHT22;6034;46.864;15.216;2022-08-07T07:37:10;22.80;99.90
1678;DHT22;6034;46.864;15.216;2022-08-07T07:39:37;23.10;99.90
1678;DHT22;6034;46.864;15.216;2022-08-07T07:42:06;23.20;99.90
1678;DHT22;6034;46.864;15.216;2022-08-07T07:44:35;23.40;99.90
1678;DHT22;6034;46.864;15.216;2022-08-07T07:47:04;23.50;99.90
1678;DHT22;6034;46.864;15.216;2022-08-07T07:49:32;23.60;99.90
1678;DHT22;6034;46.864;15.216;2022-08-07T07:52:00;23.10;99.90
1678;DHT22;6034;46.864;15.216;2022-08-07T07:54:28;23.20;99.90
1678;DHT22;6034;46.864;15.216;2022-08-07T07:56:56;23.30;99.90
1678;DHT22;6034;46.864;15.216;2022-08-07T07:59:25;22.70;99.90
1678;DHT22;6034;46.864;15.216;2022-08-07T08:01:53;22.80;99.90
1678;DHT22;6034;46.864;15.216;2022-08-07T08:04:20;22.50;99.90
1678;DHT22;6034;46.864;15.216;2022-08-07T08:06:48;22.60;99.90
1678;DHT22;6034;46.864;15.216;2022-08-07T08:09:16;22.50;99.90
1678;DHT22;6034;46.864;15.216;2022-08-07T08:11:45;22.80;99.90
1678;DHT22;6034;46.864;15.216;2022-08-07T08:14:13;22.70;99.90
1678;DHT22;6034;46.864;15.216;2022-08-07T08:16:42;22.80;99.90
1678;DHT22;6034;46.864;15.216;2022-08-07T08:19:10;22.90;99.90
1678;DHT22;6034;46.864;15.216;2022-08-07T08:21:38;22.50;99.90
1678;DHT22;6034;46.864;15.216;2022-08-07T08:24:23;22.40;99.90
1678;DHT22;6034;46.864;15.216;2022-08-07T08:27:09;22.80;99.90
1678;DHT22;6034;46.864;15.216;2022-08-07T08:29:39;22.70;99.90
1678;DHT22;6034;46.864;15.216;2022-08-07T08:32:09;22.80;99.90
1678;DHT22;6034;46.864;15.216;2022-08-07T08:34:37;22.40;99.90
1678;DHT22;6034;46.864;15.216;2022-08-07T08:37:05;22.20;99.90
1678;DHT22;6034;46.864;15.216;2022-08-07T08:39:33;22.20;99.90
1678;DHT22;6034;46.864;15.216;2022-08-07T08:42:02;22.50;99.90
1678;DHT22;6034;46.864;15.216;2022-08-07T08:44:31;22.20;99.90
1678;DHT22;6034;46.864;15.216;2022-08-07T08:47:02;22.10;99.90
1678;DHT22;6034;46.864;15.216;2022-08-07T08:49:32;21.70;99.90
1678;DHT22;6034;46.864;15.216;2022-08-07T08:52:02;22.10;99.90
1678;DHT22;6034;46.864;15.216;2022-08-07T08:54:48;21.90;99.90
1678;DHT22;6034;46.864;15.216;2022-08-07T09:15:29;22.00;99.90
1678;DHT22;6034;46.864;15.216;2022-08-07T09:18:03;22.70;99.90
1678;DHT22;6034;46.864;15.216;2022-08-07T09:20:34;23.20;99.90
1678;DHT22;6034;46.864;15.216;2022-08-07T09:23:06;23.60;99.90
1678;DHT22;6034;46.864;15.216;2022-08-07T09:25:37;23.60;99.90
1678;DHT22;6034;46.864;15.216;2022-08-07T09:28:10;23.70;99.90
1678;DHT22;6034;46.864;15.216;2022-08-07T09:30:48;23.50;99.90
1678;DHT22;6034;46.864;15.216;2022-08-07T09:33:30;23.50;99.90
1678;DHT22;6034;46.864;15.216;2022-08-07T09:36:00;23.50;99.90
1678;DHT22;6034;46.864;15.216;2022-08-07T09:38:30;23.50;99.90
1678;DHT22;6034;46.864;15.216;2022-08-07T09:41:02;23.60;99.90
1678;DHT22;6034;46.864;15.216;2022-08-07T09:43:52;23.70;99.90
1678;DHT22;6034;46.864;15.216;2022-08-07T09:46:25;23.80;99.90
1678;DHT22;6034;46.864;15.216;2022-08-07T09:48:57;23.90;99.90
1678;DHT22;6034;46.864;15.216;2022-08-07T09:51:32;23.70;99.90
1678;DHT22;6034;46.864;15.216;2022-08-07T09:54:05;23.10;99.90
1678;DHT22;6034;46.864;15.216;2022-08-07T09:56:39;23.00;99.90
1678;DHT22;6034;46.864;15.216;2022-08-07T09:59:23;23.30;99.90
1678;DHT22;6034;46.864;15.216;2022-08-07T10:01:59;23.20;99.90
1678;DHT22;6034;46.864;15.216;2022-08-07T10:04:32;23.50;99.90
1678;DHT22;6034;46.864;15.216;2022-08-07T10:07:16;23.60;99.90
1678;DHT22;6034;46.864;15.216;2022-08-07T10:10:06;23.70;99.90
1678;DHT22;6034;46.864;15.216;2022-08-07T10:18:25;23.40;99.90
1678;DHT22;6034;46.864;15.216;2022-08-07T10:21:09;23.50;99.90
1678;DHT22;6034;46.864;15.216;2022-08-07T10:26:29;23.60;99.90
1678;DHT22;6034;46.864;15.216;2022-08-07T10:29:02;23.70;99.90
1678;DHT22;6034;46.864;15.216;2022-08-07T10:31:40;24.00;99.90
1678;DHT22;6034;46.864;15.216;2022-08-07T10:34:14;24.00;99.90
1678;DHT22;6034;46.864;15.216;2022-08-07T10:36:52;24.00;99.90
1678;DHT22;6034;46.864;15.216;2022-08-07T10:39:26;24.20;99.90
1678;DHT22;6034;46.864;15.216;2022-08-07T10:41:57;24.20;99.90
1678;DHT22;6034;46.864;15.216;2022-08-07T10:44:31;24.50;99.90
1678;DHT22;6034;46.864;15.216;2022-08-07T10:47:01;24.50;99.90
1678;DHT22;6034;46.864;15.216;2022-08-07T10:49:34;24.50;99.90
1678;DHT22;6034;46.864;15.216;2022-08-07T10:52:04;24.50;99.90
1678;DHT22;6034;46.864;15.216;2022-08-07T10:54:40;24.70;99.90
1678;DHT22;6034;46.864;15.216;2022-08-07T10:57:10;24.70;99.90
1678;DHT22;6034;46.864;15.216;2022-08-07T10:59:52;24.80;99.90
1678;DHT22;6034;46.864;15.216;2022-08-07T11:02:27;24.90;99.90
1678;DHT22;6034;46.864;15.216;2022-08-07T11:04:58;24.90;99.90
1678;DHT22;6034;46.864;15.216;2022-08-07T11:07:35;25.10;99.90
1678;DHT22;6034;46.864;15.216;2022-08-07T11:10:04;25.10;99.90
1678;DHT22;6034;46.864;15.216;2022-08-07T11:12:35;25.30;99.90
1678;DHT22;6034;46.864;15.216;2022-08-07T11:15:05;25.30;99.90
1678;DHT22;6034;46.864;15.216;2022-08-07T11:17:36;25.30;99.90
1678;DHT22;6034;46.864;15.216;2022-08-07T11:20:07;25.30;99.90
1678;DHT22;6034;46.864;15.216;2022-08-07T11:25:41;25.30;99.90
1678;DHT22;6034;46.864;15.216;2022-08-07T11:28:13;25.30;99.90
1678;DHT22;6034;46.864;15.216;2022-08-07T11:33:41;25.20;99.90
1678;DHT22;6034;46.864;15.216;2022-08-07T11:36:17;25.10;99.90
1678;DHT22;6034;46.864;15.216;2022-08-07T11:38:49;25.10;99.90
1678;DHT22;6034;46.864;15.216;2022-08-07T11:41:21;25.10;99.90
1678;DHT22;6034;46.864;15.216;2022-08-07T11:43:51;25.10;99.90
1678;DHT22;6034;46.864;15.216;2022-08-07T11:46:25;25.10;99.90
1678;DHT22;6034;46.864;15.216;2022-08-07T11:49:00;24.30;99.90
1678;DHT22;6034;46.864;15.216;2022-08-07T11:57:04;24.70;99.90
1678;DHT22;6034;46.864;15.216;2022-08-07T12:05:18;24.90;99.90
1678;DHT22;6034;46.864;15.216;2022-08-07T12:07:48;24.90;99.90
1678;DHT22;6034;46.864;15.216;2022-08-07T12:10:18;25.00;99.90
1678;DHT22;6034;46.864;15.216;2022-08-07T12:12:56;25.00;99.90
1678;DHT22;6034;46.864;15.216;2022-08-07T12:15:29;25.00;99.90
1678;DHT22;6034;46.864;15.216;2022-08-07T12:17:59;24.90;99.90
1678;DHT22;6034;46.864;15.216;2022-08-07T12:20:27;25.00;99.90
1678;DHT22;6034;46.864;15.216;2022-08-07T12:23:10;24.90;99.90
1678;DHT22;6034;46.864;15.216;2022-08-07T12:25:40;24.90;99.90
1678;DHT22;6034;46.864;15.216;2022-08-07T12:28:25;25.00;99.90
1678;DHT22;6034;46.864;15.216;2022-08-07T12:31:02;25.10;99.90
1678;DHT22;6034;46.864;15.216;2022-08-07T12:33:31;25.10;99.90
1678;DHT22;6034;46.864;15.216;2022-08-07T12:35:58;25.10;99.90
1678;DHT22;6034;46.864;15.216;2022-08-07T12:38:25;25.20;99.90
1678;DHT22;6034;46.864;15.216;2022-08-07T12:40:53;25.30;99.90
1678;DHT22;6034;46.864;15.216;2022-08-07T12:43:22;25.30;99.90
1678;DHT22;6034;46.864;15.216;2022-08-07T12:45:53;25.30;99.90
1678;DHT22;6034;46.864;15.216;2022-08-07T12:48:25;25.30;99.90
1678;DHT22;6034;46.864;15.216;2022-08-07T12:50:56;25.30;99.90
1678;DHT22;6034;46.864;15.216;2022-08-07T12:53:27;25.40;99.90
1678;DHT22;6034;46.864;15.216;2022-08-07T12:55:57;25.40;99.90
1678;DHT22;6034;46.864;15.216;2022-08-07T12:58:26;25.50;99.90
1678;DHT22;6034;46.864;15.216;2022-08-07T13:00:59;25.40;99.90
1678;DHT22;6034;46.864;15.216;2022-08-07T13:06:14;25.40;99.90
1678;DHT22;6034;46.864;15.216;2022-08-07T13:08:47;25.40;99.90
1678;DHT22;6034;46.864;15.216;2022-08-07T13:11:22;25.50;99.90
1678;DHT22;6034;46.864;15.216;2022-08-07T13:13:55;25.60;99.90
1678;DHT22;6034;46.864;15.216;2022-08-07T13:16:28;25.60;99.90
1678;DHT22;6034;46.864;15.216;2022-08-07T13:18:59;25.60;99.90
1678;DHT22;6034;46.864;15.216;2022-08-07T13:21:29;25.50;99.90
1678;DHT22;6034;46.864;15.216;2022-08-07T13:24:13;25.50;99.90
1678;DHT22;6034;46.864;15.216;2022-08-07T13:26:42;25.60;99.90
1678;DHT22;6034;46.864;15.216;2022-08-07T13:29:13;25.50;99.90
1678;DHT22;6034;46.864;15.216;2022-08-07T13:31:44;25.50;99.90
1678;DHT22;6034;46.864;15.216;2022-08-07T13:34:15;25.50;99.90
1678;DHT22;6034;46.864;15.216;2022-08-07T13:36:49;25.40;99.90
1678;DHT22;6034;46.864;15.216;2022-08-07T13:39:21;25.40;99.90
1678;DHT22;6034;46.864;15.216;2022-08-07T13:41:52;25.40;99.90
1678;DHT22;6034;46.864;15.216;2022-08-07T13:44:20;25.10;99.90
1678;DHT22;6034;46.864;15.216;2022-08-07T13:46:49;25.40;99.90
1678;DHT22;6034;46.864;15.216;2022-08-07T13:49:18;25.40;99.90
1678;DHT22;6034;46.864;15.216;2022-08-07T13:51:46;25.50;99.90
1678;DHT22;6034;46.864;15.216;2022-08-07T13:54:14;25.30;99.60
1678;DHT22;6034;46.864;15.216;2022-08-07T13:56:42;25.40;99.90
1678;DHT22;6034;46.864;15.216;2022-08-07T13:59:12;25.50;99.90
1678;DHT22;6034;46.864;15.216;2022-08-07T14:01:43;25.50;99.90
1678;DHT22;6034;46.864;15.216;2022-08-07T14:04:13;25.60;99.90
1678;DHT22;6034;46.864;15.216;2022-08-07T14:06:41;25.60;99.90
1678;DHT22;6034;46.864;15.216;2022-08-07T14:09:17;25.60;99.90
1678;DHT22;6034;46.864;15.216;2022-08-07T14:11:48;25.50;99.90
1678;DHT22;6034;46.864;15.216;2022-08-07T14:14:15;25.50;99.90
1678;DHT22;6034;46.864;15.216;2022-08-07T14:16:42;25.60;99.90
1678;DHT22;6034;46.864;15.216;2022-08-07T14:19:20;25.60;99.90
1678;DHT22;6034;46.864;15.216;2022-08-07T14:21:49;25.60;99.90
1678;DHT22;6034;46.864;15.216;2022-08-07T14:24:19;25.60;99.90
1678;DHT22;6034;46.864;15.216;2022-08-07T14:26:48;25.40;99.90
1678;DHT22;6034;46.864;15.216;2022-08-07T14:29:17;25.30;99.90
1678;DHT22;6034;46.864;15.216;2022-08-07T14:31:45;25.40;99.90
1678;DHT22;6034;46.864;15.216;2022-08-07T14:34:13;25.50;99.90
1678;DHT22;6034;46.864;15.216;2022-08-07T14:36:48;25.50;99.90
1678;DHT22;6034;46.864;15.216;2022-08-07T14:39:16;25.40;98.40
1678;DHT22;6034;46.864;15.216;2022-08-07T14:41:43;25.10;99.80
1678;DHT22;6034;46.864;15.216;2022-08-07T14:44:14;25.10;99.80
1678;DHT22;6034;46.864;15.216;2022-08-07T14:46:42;25.30;99.90
1678;DHT22;6034;46.864;15.216;2022-08-07T14:49:09;25.40;99.90
1678;DHT22;6034;46.864;15.216;2022-08-07T14:51:37;25.40;99.90
1678;DHT22;6034;46.864;15.216;2022-08-07T14:54:09;25.40;99.90
1678;DHT22;6034;46.864;15.216;2022-08-07T14:56:40;25.40;99.90
1678;DHT22;6034;46.864;15.216;2022-08-07T14:59:08;25.40;99.90
1678;DHT22;6034;46.864;15.216;2022-08-07T15:01:37;25.40;99.90
1678;DHT22;6034;46.864;15.216;2022-08-07T15:04:18;25.40;99.90
1678;DHT22;6034;46.864;15.216;2022-08-07T15:06:47;25.20;99.90
1678;DHT22;6034;46.864;15.216;2022-08-07T15:09:16;25.20;99.90
1678;DHT22;6034;46.864;15.216;2022-08-07T15:11:50;25.20;99.90
1678;DHT22;6034;46.864;15.216;2022-08-07T15:14:18;25.20;99.90
1678;DHT22;6034;46.864;15.216;2022-08-07T15:16:47;25.20;99.90
1678;DHT22;6034;46.864;15.216;2022-08-07T15:19:16;25.20;99.90
1678;DHT22;6034;46.864;15.216;2022-08-07T15:21:45;25.10;99.90
1678;DHT22;6034;46.864;15.216;2022-08-07T15:24:14;25.10;99.90
1678;DHT22;6034;46.864;15.216;2022-08-07T15:26:46;25.10;99.90
1678;DHT22;6034;46.864;15.216;2022-08-07T15:29:13;25.10;99.90
1678;DHT22;6034;46.864;15.216;2022-08-07T15:31:41;25.00;99.50
1678;DHT22;6034;46.864;15.216;2022-08-07T15:34:08;25.00;99.80
1678;DHT22;6034;46.864;15.216;2022-08-07T15:36:42;25.00;99.90
1678;DHT22;6034;46.864;15.216;2022-08-07T15:39:15;25.00;99.50
1678;DHT22;6034;46.864;15.216;2022-08-07T15:41:57;24.90;99.50
1678;DHT22;6034;46.864;15.216;2022-08-07T15:44:26;24.90;99.40
1678;DHT22;6034;46.864;15.216;2022-08-07T15:46:55;24.90;99.00
1678;DHT22;6034;46.864;15.216;2022-08-07T15:49:24;24.80;99.70
1678;DHT22;6034;46.864;15.216;2022-08-07T15:51:54;24.70;99.90
1678;DHT22;6034;46.864;15.216;2022-08-07T15:54:22;24.80;99.10
1678;DHT22;6034;46.864;15.216;2022-08-07T15:56:49;23.80;98.20
1678;DHT22;6034;46.864;15.216;2022-08-07T15:59:18;24.70;98.10
1678;DHT22;6034;46.864;15.216;2022-08-07T16:01:48;24.60;98.10
1678;DHT22;6034;46.864;15.216;2022-08-07T16:04:15;24.60;98.30
1678;DHT22;6034;46.864;15.216;2022-08-07T16:06:47;24.50;98.40
1678;DHT22;6034;46.864;15.216;2022-08-07T16:09:17;24.40;97.60
1678;DHT22;6034;46.864;15.216;2022-08-07T16:11:51;24.30;97.90
1678;DHT22;6034;46.864;15.216;2022-08-07T16:14:31;24.30;97.20
1678;DHT22;6034;46.864;15.216;2022-08-07T16:17:07;24.20;97.00
1678;DHT22;6034;46.864;15.216;2022-08-07T16:25:12;24.10;98.10
1678;DHT22;6034;46.864;15.216;2022-08-07T16:27:46;24.20;98.70
1678;DHT22;6034;46.864;15.216;2022-08-07T16:30:16;24.10;97.60
1678;DHT22;6034;46.864;15.216;2022-08-07T16:32:46;24.00;97.30
1678;DHT22;6034;46.864;15.216;2022-08-07T16:35:15;24.00;96.60
1678;DHT22;6034;46.864;15.216;2022-08-07T16:40:36;23.90;97.00
1678;DHT22;6034;46.864;15.216;2022-08-07T16:43:11;23.80;97.10
1678;DHT22;6034;46.864;15.216;2022-08-07T16:45:54;23.80;96.90
1678;DHT22;6034;46.864;15.216;2022-08-07T16:48:31;23.80;97.10
1678;DHT22;6034;46.864;15.216;2022-08-07T16:51:04;23.80;97.30
1678;DHT22;6034;46.864;15.216;2022-08-07T16:53:46;23.80;97.70
1678;DHT22;6034;46.864;15.216;2022-08-07T16:56:26;23.80;97.50
1678;DHT22;6034;46.864;15.216;2022-08-07T16:58:57;23.80;97.40
1678;DHT22;6034;46.864;15.216;2022-08-07T17:01:33;23.70;97.90
1678;DHT22;6034;46.864;15.216;2022-08-07T17:04:05;23.70;97.20
1678;DHT22;6034;46.864;15.216;2022-08-07T17:06:51;23.70;97.40
1678;DHT22;6034;46.864;15.216;2022-08-07T17:09:27;23.70;97.30
1678;DHT22;6034;46.864;15.216;2022-08-07T17:11:55;23.70;97.20
1678;DHT22;6034;46.864;15.216;2022-08-07T17:14:29;23.70;97.00
1678;DHT22;6034;46.864;15.216;2022-08-07T17:17:05;23.60;97.00
1678;DHT22;6034;46.864;15.216;2022-08-07T17:19:36;23.60;97.00
1678;DHT22;6034;46.864;15.216;2022-08-07T17:22:08;23.60;97.30
1678;DHT22;6034;46.864;15.216;2022-08-07T17:24:48;23.70;97.40
1678;DHT22;6034;46.864;15.216;2022-08-07T17:27:18;23.60;96.70
1678;DHT22;6034;46.864;15.216;2022-08-07T17:29:51;23.50;99.80
1678;DHT22;6034;46.864;15.216;2022-08-07T17:32:26;23.40;99.90
1678;DHT22;6034;46.864;15.216;2022-08-07T17:34:54;23.40;99.90
1678;DHT22;6034;46.864;15.216;2022-08-07T17:37:24;23.50;98.20
1678;DHT22;6034;46.864;15.216;2022-08-07T17:42:26;23.50;98.10
1678;DHT22;6034;46.864;15.216;2022-08-07T17:44:55;23.50;98.40
1678;DHT22;6034;46.864;15.216;2022-08-07T17:47:27;23.50;98.10
1678;DHT22;6034;46.864;15.216;2022-08-07T17:49:58;23.50;98.60
1678;DHT22;6034;46.864;15.216;2022-08-07T17:52:28;23.50;98.60
1678;DHT22;6034;46.864;15.216;2022-08-07T17:55:02;23.50;98.80
1678;DHT22;6034;46.864;15.216;2022-08-07T17:57:30;23.50;98.00
1678;DHT22;6034;46.864;15.216;2022-08-07T17:59:58;23.40;96.40
1678;DHT22;6034;46.864;15.216;2022-08-07T18:02:28;23.40;97.30
1678;DHT22;6034;46.864;15.216;2022-08-07T18:05:01;23.30;98.00
1678;DHT22;6034;46.864;15.216;2022-08-07T18:07:35;23.30;98.20
1678;DHT22;6034;46.864;15.216;2022-08-07T18:10:08;23.30;97.30
1678;DHT22;6034;46.864;15.216;2022-08-07T18:15:22;23.30;95.80
1678;DHT22;6034;46.864;15.216;2022-08-07T18:17:51;23.30;96.60
1678;DHT22;6034;46.864;15.216;2022-08-07T18:20:24;23.30;96.50
1678;DHT22;6034;46.864;15.216;2022-08-07T18:22:53;23.30;96.70
1678;DHT22;6034;46.864;15.216;2022-08-07T18:25:22;23.20;96.30
1678;DHT22;6034;46.864;15.216;2022-08-07T18:30:36;22.50;99.90
1678;DHT22;6034;46.864;15.216;2022-08-07T18:33:06;22.30;99.90
1678;DHT22;6034;46.864;15.216;2022-08-07T18:35:49;22.60;99.90
1678;DHT22;6034;46.864;15.216;2022-08-07T18:38:20;22.70;99.80
1678;DHT22;6034;46.864;15.216;2022-08-07T18:40:53;22.70;99.90
1678;DHT22;6034;46.864;15.216;2022-08-07T18:43:27;22.50;99.90
1678;DHT22;6034;46.864;15.216;2022-08-07T18:45:58;22.30;99.90
1678;DHT22;6034;46.864;15.216;2022-08-07T18:48:26;22.30;99.90
1678;DHT22;6034;46.864;15.216;2022-08-07T18:51:02;22.40;99.90
1678;DHT22;6034;46.864;15.216;2022-08-07T18:53:34;22.40;99.90
1678;DHT22;6034;46.864;15.216;2022-08-07T18:56:10;22.50;99.90
1678;DHT22;6034;46.864;15.216;2022-08-07T18:58:43;22.50;99.90
1678;DHT22;6034;46.864;15.216;2022-08-07T19:01:19;22.50;99.90
1678;DHT22;6034;46.864;15.216;2022-08-07T19:03:50;22.50;99.90
1678;DHT22;6034;46.864;15.216;2022-08-07T19:06:28;22.40;99.90
1678;DHT22;6034;46.864;15.216;2022-08-07T19:08:58;22.50;99.90
1678;DHT22;6034;46.864;15.216;2022-08-07T19:11:37;22.40;99.90
1678;DHT22;6034;46.864;15.216;2022-08-07T19:14:10;22.50;99.90
1678;DHT22;6034;46.864;15.216;2022-08-07T19:16:39;22.40;99.90
1678;DHT22;6034;46.864;15.216;2022-08-07T19:19:10;22.20;99.90
1678;DHT22;6034;46.864;15.216;2022-08-07T19:24:20;22.10;99.90
1678;DHT22;6034;46.864;15.216;2022-08-07T19:26:48;22.00;99.90
1678;DHT22;6034;46.864;15.216;2022-08-07T19:29:16;22.10;99.90
1678;DHT22;6034;46.864;15.216;2022-08-07T19:31:43;22.10;99.90
1678;DHT22;6034;46.864;15.216;2022-08-07T19:34:12;22.10;99.90
1678;DHT22;6034;46.864;15.216;2022-08-07T19:36:40;22.00;99.90
1678;DHT22;6034;46.864;15.216;2022-08-07T19:39:09;22.00;99.90
1678;DHT22;6034;46.864;15.216;2022-08-07T19:41:41;22.10;99.90
1678;DHT22;6034;46.864;15.216;2022-08-07T19:44:08;22.10;99.90
1678;DHT22;6034;46.864;15.216;2022-08-07T19:46:39;22.10;99.90
1678;DHT22;6034;46.864;15.216;2022-08-07T19:49:07;22.10;99.90
1678;DHT22;6034;46.864;15.216;2022-08-07T19:51:39;21.90;99.90
1678;DHT22;6034;46.864;15.216;2022-08-07T19:54:07;21.80;99.90
1678;DHT22;6034;46.864;15.216;2022-08-07T19:56:35;21.90;99.90
1678;DHT22;6034;46.864;15.216;2022-08-07T19:59:09;22.00;99.90
1678;DHT22;6034;46.864;15.216;2022-08-07T20:01:43;22.00;99.90
1678;DHT22;6034;46.864;15.216;2022-08-07T20:04:10;22.00;99.90
1678;DHT22;6034;46.864;15.216;2022-08-07T20:06:38;22.00;99.90
1678;DHT22;6034;46.864;15.216;2022-08-07T20:09:05;22.00;99.90
1678;DHT22;6034;46.864;15.216;2022-08-07T20:11:32;22.00;99.90
1678;DHT22;6034;46.864;15.216;2022-08-07T20:14:10;22.00;99.90
1678;DHT22;6034;46.864;15.216;2022-08-07T20:16:39;21.90;99.90
1678;DHT22;6034;46.864;15.216;2022-08-07T20:19:06;21.90;99.90
1678;DHT22;6034;46.864;15.216;2022-08-07T20:21:37;21.90;99.90
1678;DHT22;6034;46.864;15.216;2022-08-07T20:24:05;21.90;99.90
1678;DHT22;6034;46.864;15.216;2022-08-07T20:26:37;21.90;99.90
1678;DHT22;6034;46.864;15.216;2022-08-07T20:29:07;21.90;99.90
1678;DHT22;6034;46.864;15.216;2022-08-07T20:31:41;21.90;99.90
1678;DHT22;6034;46.864;15.216;2022-08-07T20:34:10;21.90;99.90
1678;DHT22;6034;46.864;15.216;2022-08-07T20:36:38;21.90;99.90
1678;DHT22;6034;46.864;15.216;2022-08-07T20:39:08;21.80;99.90
1678;DHT22;6034;46.864;15.216;2022-08-07T20:41:36;21.80;99.90
1678;DHT22;6034;46.864;15.216;2022-08-07T20:44:03;21.80;99.90
1678;DHT22;6034;46.864;15.216;2022-08-07T20:46:30;21.70;99.90
1678;DHT22;6034;46.864;15.216;2022-08-07T20:48:59;21.70;99.90
1678;DHT22;6034;46.864;15.216;2022-08-07T20:51:28;21.70;99.90
1678;DHT22;6034;46.864;15.216;2022-08-07T20:53:55;21.70;99.90
1678;DHT22;6034;46.864;15.216;2022-08-07T20:56:31;21.70;99.90
1678;DHT22;6034;46.864;15.216;2022-08-07T20:59:05;21.70;99.90
